sensor_id;sensor_type;location;lat;lon;timestamp;pressure;altitude;pressure_sealevel;temperature;humidity
28344;BME280;15597;50.914;6.638;2024-03-06T00:02:08;100941.84;;;13.09;53.17
28344;BME280;15597;50.914;6.638;2024-03-06T00:04:34;100954.22;;;13.04;53.26
28344;BME280;15597;50.914;6.638;2024-03-06T00:07:00;100952.63;;;12.98;53.33
28344;BME280;15597;50.914;6.638;2024-03-06T00:09:26;100957.19;;;12.91;53.23
28344;BME280;15597;50.914;6.638;2024-03-06T00:11:55;100966.13;;;12.84;53.63
28344;BME280;15597;50.914;6.638;2024-03-06T00:14:22;100971.44;;;12.81;53.79
28344;BME280;15597;50.914;6.638;2024-03-06T00:16:48;100966.25;;;12.78;53.34
28344;BME280;15597;50.914;6.638;2024-03-06T00:19:18;100980.28;;;12.77;53.73
28344;BME280;15597;50.914;6.638;2024-03-06T00:21:44;100987.34;;;12.75;53.57
28344;BME280;15597;50.914;6.638;2024-03-06T00:24:16;100996.16;;;12.70;53.55
28344;BME280;15597;50.914;6.638;2024-03-06T00:26:45;100993.63;;;12.67;53.36
28344;BME280;15597;50.914;6.638;2024-03-06T00:29:11;100991.28;;;12.55;53.21
28344;BME280;15597;50.914;6.638;2024-03-06T00:31:37;100984.38;;;12.51;53.34
28344;BME280;15597;50.914;6.638;2024-03-06T00:34:03;100986.19;;;12.49;53.13
28344;BME280;15597;50.914;6.638;2024-03-06T00:36:29;100991.50;;;12.46;53.05
28344;BME280;15597;50.914;6.638;2024-03-06T00:38:54;101000.25;;;12.45;53.25
28344;BME280;15597;50.914;6.638;2024-03-06T00:41:20;100995.09;;;12.41;53.00
28344;BME280;15597;50.914;6.638;2024-03-06T00:43:46;101000.41;;;12.38;53.28
28344;BME280;15597;50.914;6.638;2024-03-06T00:46:11;100998.75;;;12.34;53.02
28344;BME280;15597;50.914;6.638;2024-03-06T00:48:37;101003.22;;;12.31;53.35
28344;BME280;15597;50.914;6.638;2024-03-06T00:51:05;100999.78;;;12.27;53.35
28344;BME280;15597;50.914;6.638;2024-03-06T00:53:34;101006.06;;;12.20;53.66
28344;BME280;15597;50.914;6.638;2024-03-06T00:55:59;101011.44;;;12.13;53.71
28344;BME280;15597;50.914;6.638;2024-03-06T00:58:25;101009.78;;;12.09;54.25
28344;BME280;15597;50.914;6.638;2024-03-06T01:00:51;101011.56;;;12.07;54.18
28344;BME280;15597;50.914;6.638;2024-03-06T01:03:16;101020.34;;;12.06;54.18
28344;BME280;15597;50.914;6.638;2024-03-06T01:05:42;101017.66;;;12.08;54.46
28344;BME280;15597;50.914;6.638;2024-03-06T01:08:08;101023.78;;;12.08;54.57
28344;BME280;15597;50.914;6.638;2024-03-06T01:10:34;101025.53;;;12.09;54.08
28344;BME280;15597;50.914;6.638;2024-03-06T01:12:59;101029.81;;;12.12;54.31
28344;BME280;15597;50.914;6.638;2024-03-06T01:15:25;101029.75;;;12.15;54.36
28344;BME280;15597;50.914;6.638;2024-03-06T01:17:51;101026.22;;;12.16;54.05
28344;BME280;15597;50.914;6.638;2024-03-06T01:20:16;101025.31;;;12.19;53.69
28344;BME280;15597;50.914;6.638;2024-03-06T01:22:42;101032.28;;;12.20;53.77
28344;BME280;15597;50.914;6.638;2024-03-06T01:25:08;101029.69;;;12.18;53.82
28344;BME280;15597;50.914;6.638;2024-03-06T01:27:33;101036.72;;;12.18;53.35
28344;BME280;15597;50.914;6.638;2024-03-06T01:29:59;101040.22;;;12.17;53.64
28344;BME280;15597;50.914;6.638;2024-03-06T01:32:25;101046.38;;;12.16;53.52
28344;BME280;15597;50.914;6.638;2024-03-06T01:34:51;101044.66;;;12.15;53.24
28344;BME280;15597;50.914;6.638;2024-03-06T01:37:16;101042.91;;;12.13;52.99
28344;BME280;15597;50.914;6.638;2024-03-06T01:39:42;101037.75;;;12.10;52.95
28344;BME280;15597;50.914;6.638;2024-03-06T01:42:08;101041.28;;;12.08;52.93
28344;BME280;15597;50.914;6.638;2024-03-06T01:44:33;101041.31;;;12.06;53.02
28344;BME280;15597;50.914;6.638;2024-03-06T01:46:59;101045.75;;;12.03;53.14
28344;BME280;15597;50.914;6.638;2024-03-06T01:49:26;101039.69;;;11.99;52.60
28344;BME280;15597;50.914;6.638;2024-03-06T01:51:54;101046.78;;;11.94;52.41
28344;BME280;15597;50.914;6.638;2024-03-06T01:54:21;101043.44;;;11.86;52.25
28344;BME280;15597;50.914;6.638;2024-03-06T01:56:49;101043.63;;;11.76;52.23
28344;BME280;15597;50.914;6.638;2024-03-06T01:59:16;101050.78;;;11.68;52.38
28344;BME280;15597;50.914;6.638;2024-03-06T02:01:44;101047.41;;;11.60;52.68
28344;BME280;15597;50.914;6.638;2024-03-06T02:04:11;101038.81;;;11.51;52.69
28344;BME280;15597;50.914;6.638;2024-03-06T02:06:41;101046.00;;;11.42;52.29
28344;BME280;15597;50.914;6.638;2024-03-06T02:09:07;101039.09;;;11.36;52.25
28344;BME280;15597;50.914;6.638;2024-03-06T02:11:35;101037.53;;;11.27;52.46
28344;BME280;15597;50.914;6.638;2024-03-06T02:14:01;101044.59;;;11.20;52.51
28344;BME280;15597;50.914;6.638;2024-03-06T02:16:28;101041.25;;;11.14;52.40
28344;BME280;15597;50.914;6.638;2024-03-06T02:18:54;101049.16;;;11.09;52.62
28344;BME280;15597;50.914;6.638;2024-03-06T02:21:21;101046.59;;;11.06;52.77
28344;BME280;15597;50.914;6.638;2024-03-06T02:23:48;101041.44;;;11.00;52.69
28344;BME280;15597;50.914;6.638;2024-03-06T02:26:17;101043.38;;;10.87;52.83
28344;BME280;15597;50.914;6.638;2024-03-06T02:28:49;101045.22;;;10.81;52.64
28344;BME280;15597;50.914;6.638;2024-03-06T02:31:16;101052.22;;;10.81;52.70
28344;BME280;15597;50.914;6.638;2024-03-06T02:33:43;101053.09;;;10.78;52.88
28344;BME280;15597;50.914;6.638;2024-03-06T02:36:10;101054.88;;;10.78;52.28
28344;BME280;15597;50.914;6.638;2024-03-06T02:38:37;101052.25;;;10.76;52.83
28344;BME280;15597;50.914;6.638;2024-03-06T02:41:02;101053.16;;;10.75;52.87
28344;BME280;15597;50.914;6.638;2024-03-06T02:43:28;101053.16;;;10.75;53.23
28344;BME280;15597;50.914;6.638;2024-03-06T02:45:54;101056.66;;;10.74;52.96
28344;BME280;15597;50.914;6.638;2024-03-06T02:48:19;101047.06;;;10.73;52.69
28344;BME280;15597;50.914;6.638;2024-03-06T02:50:45;101048.84;;;10.73;52.84
28344;BME280;15597;50.914;6.638;2024-03-06T02:53:11;101044.47;;;10.73;53.20
28344;BME280;15597;50.914;6.638;2024-03-06T02:55:36;101045.34;;;10.74;52.78
28344;BME280;15597;50.914;6.638;2024-03-06T02:58:03;101044.44;;;10.75;53.13
28344;BME280;15597;50.914;6.638;2024-03-06T03:00:29;101045.34;;;10.74;52.92
28344;BME280;15597;50.914;6.638;2024-03-06T03:02:54;101042.72;;;10.72;52.75
28344;BME280;15597;50.914;6.638;2024-03-06T03:05:20;101047.16;;;10.69;52.97
28344;BME280;15597;50.914;6.638;2024-03-06T03:07:46;101039.34;;;10.65;52.94
28344;BME280;15597;50.914;6.638;2024-03-06T03:10:11;101040.28;;;10.61;53.18
28344;BME280;15597;50.914;6.638;2024-03-06T03:12:38;101036.84;;;10.56;53.06
28344;BME280;15597;50.914;6.638;2024-03-06T03:15:04;101043.94;;;10.48;53.10
28344;BME280;15597;50.914;6.638;2024-03-06T03:17:31;101048.41;;;10.41;52.73
28344;BME280;15597;50.914;6.638;2024-03-06T03:19:57;101047.53;;;10.37;53.05
28344;BME280;15597;50.914;6.638;2024-03-06T03:22:22;101044.97;;;10.34;52.95
28344;BME280;15597;50.914;6.638;2024-03-06T03:24:48;101048.44;;;10.35;53.87
28344;BME280;15597;50.914;6.638;2024-03-06T03:27:14;101049.31;;;10.35;53.97
28344;BME280;15597;50.914;6.638;2024-03-06T03:29:40;101053.66;;;10.36;54.21
28344;BME280;15597;50.914;6.638;2024-03-06T03:32:06;101056.25;;;10.40;54.10
28344;BME280;15597;50.914;6.638;2024-03-06T03:34:34;101059.72;;;10.42;54.09
28344;BME280;15597;50.914;6.638;2024-03-06T03:37:01;101059.69;;;10.45;53.23
28344;BME280;15597;50.914;6.638;2024-03-06T03:39:27;101066.63;;;10.46;53.43
28344;BME280;15597;50.914;6.638;2024-03-06T03:41:52;101074.50;;;10.46;53.79
28344;BME280;15597;50.914;6.638;2024-03-06T03:44:18;101073.63;;;10.44;53.28
28344;BME280;15597;50.914;6.638;2024-03-06T03:46:45;101081.53;;;10.39;53.21
28344;BME280;15597;50.914;6.638;2024-03-06T03:49:11;101098.16;;;10.33;52.89
28344;BME280;15597;50.914;6.638;2024-03-06T03:51:38;101091.28;;;10.26;53.84
28344;BME280;15597;50.914;6.638;2024-03-06T03:54:04;101098.31;;;10.21;53.65
28344;BME280;15597;50.914;6.638;2024-03-06T03:56:30;101105.31;;;10.19;53.24
28344;BME280;15597;50.914;6.638;2024-03-06T03:58:57;101109.69;;;10.18;53.10
28344;BME280;15597;50.914;6.638;2024-03-06T04:01:24;101100.13;;;10.16;53.17
28344;BME280;15597;50.914;6.638;2024-03-06T04:03:50;101109.75;;;10.12;53.71
28344;BME280;15597;50.914;6.638;2024-03-06T04:06:16;101112.41;;;10.07;54.27
28344;BME280;15597;50.914;6.638;2024-03-06T04:08:42;101125.47;;;10.07;54.05
28344;BME280;15597;50.914;6.638;2024-03-06T04:11:08;101122.03;;;10.04;54.78
28344;BME280;15597;50.914;6.638;2024-03-06T04:13:37;101128.16;;;10.01;54.15
28344;BME280;15597;50.914;6.638;2024-03-06T04:16:04;101124.66;;;10.02;54.93
28344;BME280;15597;50.914;6.638;2024-03-06T04:18:31;101131.63;;;10.03;54.09
28344;BME280;15597;50.914;6.638;2024-03-06T04:21:09;101129.97;;;9.96;54.94
28344;BME280;15597;50.914;6.638;2024-03-06T04:23:35;101135.22;;;9.93;54.76
28344;BME280;15597;50.914;6.638;2024-03-06T04:26:01;101131.75;;;9.91;54.98
28344;BME280;15597;50.914;6.638;2024-03-06T04:28:27;101131.72;;;9.94;55.07
28344;BME280;15597;50.914;6.638;2024-03-06T04:30:53;101132.59;;;9.93;55.26
28344;BME280;15597;50.914;6.638;2024-03-06T04:33:19;101130.84;;;9.95;54.70
28344;BME280;15597;50.914;6.638;2024-03-06T04:35:45;101136.88;;;10.00;55.01
28344;BME280;15597;50.914;6.638;2024-03-06T04:38:11;101143.81;;;10.04;55.55
28344;BME280;15597;50.914;6.638;2024-03-06T04:40:37;101130.75;;;10.04;55.63
28344;BME280;15597;50.914;6.638;2024-03-06T04:43:02;101143.81;;;10.04;55.07
28344;BME280;15597;50.914;6.638;2024-03-06T04:45:28;101143.81;;;10.04;55.55
28344;BME280;15597;50.914;6.638;2024-03-06T04:47:55;101149.00;;;10.06;55.67
28344;BME280;15597;50.914;6.638;2024-03-06T04:50:20;101159.47;;;10.07;55.45
28344;BME280;15597;50.914;6.638;2024-03-06T04:52:46;101159.44;;;10.11;56.07
28344;BME280;15597;50.914;6.638;2024-03-06T04:55:12;101161.13;;;10.15;55.32
28344;BME280;15597;50.914;6.638;2024-03-06T04:57:43;101167.22;;;10.18;55.65
28344;BME280;15597;50.914;6.638;2024-03-06T05:00:10;101164.53;;;10.25;55.24
28344;BME280;15597;50.914;6.638;2024-03-06T05:02:36;101160.13;;;10.30;55.28
28344;BME280;15597;50.914;6.638;2024-03-06T05:05:03;101160.06;;;10.34;55.29
28344;BME280;15597;50.914;6.638;2024-03-06T05:07:30;101164.41;;;10.40;55.25
28344;BME280;15597;50.914;6.638;2024-03-06T05:09:56;101165.25;;;10.42;55.19
28344;BME280;15597;50.914;6.638;2024-03-06T05:12:25;101166.06;;;10.46;54.67
28344;BME280;15597;50.914;6.638;2024-03-06T05:14:52;101166.88;;;10.51;55.19
28344;BME280;15597;50.914;6.638;2024-03-06T05:17:18;101158.13;;;10.54;55.28
28344;BME280;15597;50.914;6.638;2024-03-06T05:19:45;101160.69;;;10.58;54.95
28344;BME280;15597;50.914;6.638;2024-03-06T05:22:10;101164.13;;;10.63;55.01
28344;BME280;15597;50.914;6.638;2024-03-06T05:24:37;101167.59;;;10.65;55.09
28344;BME280;15597;50.914;6.638;2024-03-06T05:27:03;101173.63;;;10.69;54.99
28344;BME280;15597;50.914;6.638;2024-03-06T05:29:29;101166.63;;;10.71;55.15
28344;BME280;15597;50.914;6.638;2024-03-06T05:31:54;101177.06;;;10.74;55.18
28344;BME280;15597;50.914;6.638;2024-03-06T05:34:24;101173.56;;;10.77;54.77
28344;BME280;15597;50.914;6.638;2024-03-06T05:36:50;101191.84;;;10.80;54.70
28344;BME280;15597;50.914;6.638;2024-03-06T05:39:15;101189.19;;;10.81;55.09
28344;BME280;15597;50.914;6.638;2024-03-06T05:41:43;101197.88;;;10.84;54.84
28344;BME280;15597;50.914;6.638;2024-03-06T05:44:09;101198.72;;;10.86;54.55
28344;BME280;15597;50.914;6.638;2024-03-06T05:46:35;101195.25;;;10.85;54.61
28344;BME280;15597;50.914;6.638;2024-03-06T05:49:02;101200.50;;;10.85;54.54
28344;BME280;15597;50.914;6.638;2024-03-06T05:51:28;101202.22;;;10.85;54.13
28344;BME280;15597;50.914;6.638;2024-03-06T05:53:54;101204.00;;;10.82;54.26
28344;BME280;15597;50.914;6.638;2024-03-06T05:56:20;101209.31;;;10.78;53.85
28344;BME280;15597;50.914;6.638;2024-03-06T05:58:46;101208.50;;;10.73;54.33
28344;BME280;15597;50.914;6.638;2024-03-06T06:01:13;101222.47;;;10.72;54.30
28344;BME280;15597;50.914;6.638;2024-03-06T06:03:41;101217.25;;;10.70;54.38
28344;BME280;15597;50.914;6.638;2024-03-06T06:06:07;101217.25;;;10.72;54.43
28344;BME280;15597;50.914;6.638;2024-03-06T06:08:34;101217.25;;;10.72;54.42
28344;BME280;15597;50.914;6.638;2024-03-06T06:11:01;101226.84;;;10.71;54.28
28344;BME280;15597;50.914;6.638;2024-03-06T06:13:29;101234.69;;;10.73;54.33
28344;BME280;15597;50.914;6.638;2024-03-06T06:15:54;101243.38;;;10.75;54.85
28344;BME280;15597;50.914;6.638;2024-03-06T06:18:20;101246.00;;;10.75;54.51
28344;BME280;15597;50.914;6.638;2024-03-06T06:20:46;101248.63;;;10.75;54.35
28344;BME280;15597;50.914;6.638;2024-03-06T06:23:11;101249.47;;;10.77;54.66
28344;BME280;15597;50.914;6.638;2024-03-06T06:25:37;101249.47;;;10.77;54.52
28344;BME280;15597;50.914;6.638;2024-03-06T06:28:03;101251.19;;;10.78;54.63
28344;BME280;15597;50.914;6.638;2024-03-06T06:30:29;101245.97;;;10.78;54.75
28344;BME280;15597;50.914;6.638;2024-03-06T06:32:55;101256.41;;;10.81;54.57
28344;BME280;15597;50.914;6.638;2024-03-06T06:35:20;101253.78;;;10.81;54.62
28344;BME280;15597;50.914;6.638;2024-03-06T06:37:48;101252.91;;;10.82;54.69
28344;BME280;15597;50.914;6.638;2024-03-06T06:40:14;101269.50;;;10.81;55.12
28344;BME280;15597;50.914;6.638;2024-03-06T06:42:47;101275.66;;;10.77;54.88
28344;BME280;15597;50.914;6.638;2024-03-06T06:45:18;101279.16;;;10.76;54.46
28344;BME280;15597;50.914;6.638;2024-03-06T06:47:45;101280.00;;;10.76;54.90
28344;BME280;15597;50.914;6.638;2024-03-06T06:50:11;101280.88;;;10.77;54.48
28344;BME280;15597;50.914;6.638;2024-03-06T06:52:38;101275.66;;;10.77;54.55
28344;BME280;15597;50.914;6.638;2024-03-06T06:55:04;101282.63;;;10.78;55.23
28344;BME280;15597;50.914;6.638;2024-03-06T06:57:31;101284.34;;;10.79;55.05
28344;BME280;15597;50.914;6.638;2024-03-06T06:59:56;101292.16;;;10.80;55.37
28344;BME280;15597;50.914;6.638;2024-03-06T07:02:22;101296.53;;;10.81;54.95
28344;BME280;15597;50.914;6.638;2024-03-06T07:04:48;101296.56;;;10.80;54.85
28344;BME280;15597;50.914;6.638;2024-03-06T07:07:14;101304.41;;;10.78;54.64
28344;BME280;15597;50.914;6.638;2024-03-06T07:09:40;101304.41;;;10.78;54.96
28344;BME280;15597;50.914;6.638;2024-03-06T07:12:06;101306.13;;;10.79;55.39
28344;BME280;15597;50.914;6.638;2024-03-06T07:14:33;101303.53;;;10.81;55.33
28344;BME280;15597;50.914;6.638;2024-03-06T07:16:58;101303.53;;;10.81;55.00
28344;BME280;15597;50.914;6.638;2024-03-06T07:19:24;101300.03;;;10.82;55.01
28344;BME280;15597;50.914;6.638;2024-03-06T07:21:50;101298.25;;;10.84;54.95
28344;BME280;15597;50.914;6.638;2024-03-06T07:24:15;101303.44;;;10.87;55.59
28344;BME280;15597;50.914;6.638;2024-03-06T07:26:41;101303.41;;;10.90;55.08
28344;BME280;15597;50.914;6.638;2024-03-06T07:29:07;101319.09;;;10.93;55.18
28344;BME280;15597;50.914;6.638;2024-03-06T07:31:42;101315.59;;;10.94;54.97
28344;BME280;15597;50.914;6.638;2024-03-06T07:34:12;101329.53;;;10.96;55.38
28344;BME280;15597;50.914;6.638;2024-03-06T07:36:37;101333.88;;;10.98;55.00
28344;BME280;15597;50.914;6.638;2024-03-06T07:39:03;101328.59;;;10.99;55.17
28344;BME280;15597;50.914;6.638;2024-03-06T07:41:30;101339.09;;;11.01;55.50
28344;BME280;15597;50.914;6.638;2024-03-06T07:43:58;101336.47;;;11.01;55.25
28344;BME280;15597;50.914;6.638;2024-03-06T07:46:25;101346.03;;;11.03;55.46
28344;BME280;15597;50.914;6.638;2024-03-06T07:48:51;101333.78;;;11.07;55.62
28344;BME280;15597;50.914;6.638;2024-03-06T07:51:17;101341.59;;;11.10;55.60
28344;BME280;15597;50.914;6.638;2024-03-06T07:53:43;101340.69;;;11.13;55.19
28344;BME280;15597;50.914;6.638;2024-03-06T07:56:11;101337.22;;;11.12;55.26
28344;BME280;15597;50.914;6.638;2024-03-06T07:58:37;101343.28;;;11.14;55.16
28344;BME280;15597;50.914;6.638;2024-03-06T08:01:03;101345.03;;;11.17;55.27
28344;BME280;15597;50.914;6.638;2024-03-06T08:03:29;101355.47;;;11.18;55.06
28344;BME280;15597;50.914;6.638;2024-03-06T08:05:55;101364.22;;;11.17;54.69
28344;BME280;15597;50.914;6.638;2024-03-06T08:08:21;101354.63;;;11.16;55.08
28344;BME280;15597;50.914;6.638;2024-03-06T08:10:46;101361.63;;;11.14;55.11
28344;BME280;15597;50.914;6.638;2024-03-06T08:13:13;101368.59;;;11.15;55.24
28344;BME280;15597;50.914;6.638;2024-03-06T08:15:39;101368.59;;;11.17;55.37
28344;BME280;15597;50.914;6.638;2024-03-06T08:18:06;101365.97;;;11.15;55.25
28344;BME280;15597;50.914;6.638;2024-03-06T08:20:31;101372.97;;;11.16;54.94
28344;BME280;15597;50.914;6.638;2024-03-06T08:22:58;101382.59;;;11.16;55.46
28344;BME280;15597;50.914;6.638;2024-03-06T08:25:23;101375.53;;;11.19;55.29
28344;BME280;15597;50.914;6.638;2024-03-06T08:27:49;101374.66;;;11.20;55.16
28344;BME280;15597;50.914;6.638;2024-03-06T08:30:15;101379.00;;;11.23;55.40
28344;BME280;15597;50.914;6.638;2024-03-06T08:32:41;101377.19;;;11.27;55.26
28344;BME280;15597;50.914;6.638;2024-03-06T08:35:12;101382.44;;;11.28;55.79
28344;BME280;15597;50.914;6.638;2024-03-06T08:37:39;101390.25;;;11.30;55.32
28344;BME280;15597;50.914;6.638;2024-03-06T08:40:06;101380.66;;;11.30;54.86
28344;BME280;15597;50.914;6.638;2024-03-06T08:42:41;101390.22;;;11.33;55.31
28344;BME280;15597;50.914;6.638;2024-03-06T08:45:11;101394.59;;;11.35;55.56
28344;BME280;15597;50.914;6.638;2024-03-06T08:47:36;101398.06;;;11.37;55.62
28344;BME280;15597;50.914;6.638;2024-03-06T08:50:03;101405.84;;;11.42;55.58
28344;BME280;15597;50.914;6.638;2024-03-06T08:52:29;101406.69;;;11.44;55.63
28344;BME280;15597;50.914;6.638;2024-03-06T08:55:00;101411.00;;;11.48;55.61
28344;BME280;15597;50.914;6.638;2024-03-06T08:57:25;101403.09;;;11.53;55.53
28344;BME280;15597;50.914;6.638;2024-03-06T08:59:54;101411.78;;;11.58;55.45
28344;BME280;15597;50.914;6.638;2024-03-06T09:02:19;101407.34;;;11.62;55.41
28344;BME280;15597;50.914;6.638;2024-03-06T09:04:46;101402.06;;;11.65;55.41
28344;BME280;15597;50.914;6.638;2024-03-06T09:07:12;101407.28;;;11.68;55.42
28344;BME280;15597;50.914;6.638;2024-03-06T09:09:39;101410.75;;;11.70;55.68
28344;BME280;15597;50.914;6.638;2024-03-06T09:12:06;101407.25;;;11.71;55.46
28344;BME280;15597;50.914;6.638;2024-03-06T09:14:33;101404.59;;;11.74;55.53
28344;BME280;15597;50.914;6.638;2024-03-06T09:16:59;101410.66;;;11.78;55.53
28344;BME280;15597;50.914;6.638;2024-03-06T09:19:25;101407.97;;;11.81;55.59
28344;BME280;15597;50.914;6.638;2024-03-06T09:21:51;101412.34;;;11.83;55.39
28344;BME280;15597;50.914;6.638;2024-03-06T09:24:17;101410.56;;;11.86;55.27
28344;BME280;15597;50.914;6.638;2024-03-06T09:26:43;101405.28;;;11.89;55.22
28344;BME280;15597;50.914;6.638;2024-03-06T09:29:09;101409.63;;;11.90;55.48
28344;BME280;15597;50.914;6.638;2024-03-06T09:31:36;101412.19;;;11.93;55.52
28344;BME280;15597;50.914;6.638;2024-03-06T09:34:02;101413.94;;;11.94;55.32
28344;BME280;15597;50.914;6.638;2024-03-06T09:36:28;101416.53;;;11.95;55.72
28344;BME280;15597;50.914;6.638;2024-03-06T09:38:54;101417.38;;;11.99;55.75
28344;BME280;15597;50.914;6.638;2024-03-06T09:41:22;101420.88;;;12.01;55.47
28344;BME280;15597;50.914;6.638;2024-03-06T09:43:47;101426.06;;;12.04;55.77
28344;BME280;15597;50.914;6.638;2024-03-06T09:46:14;101426.03;;;12.07;55.73
28344;BME280;15597;50.914;6.638;2024-03-06T09:48:47;101429.50;;;12.09;55.29
28344;BME280;15597;50.914;6.638;2024-03-06T09:51:14;101433.75;;;12.15;55.36
28344;BME280;15597;50.914;6.638;2024-03-06T09:53:41;101435.50;;;12.18;55.31
28344;BME280;15597;50.914;6.638;2024-03-06T09:56:08;101431.97;;;12.19;55.48
28344;BME280;15597;50.914;6.638;2024-03-06T09:58:35;101435.44;;;12.19;55.76
28344;BME280;15597;50.914;6.638;2024-03-06T10:01:01;101435.44;;;12.21;55.59
28344;BME280;15597;50.914;6.638;2024-03-06T10:03:29;101438.06;;;12.21;55.62
28344;BME280;15597;50.914;6.638;2024-03-06T10:05:55;101435.41;;;12.24;55.75
28344;BME280;15597;50.914;6.638;2024-03-06T10:08:22;101439.72;;;12.28;55.86
28344;BME280;15597;50.914;6.638;2024-03-06T10:10:50;101432.69;;;12.30;55.74
28344;BME280;15597;50.914;6.638;2024-03-06T10:13:16;101442.25;;;12.34;55.72
28344;BME280;15597;50.914;6.638;2024-03-06T10:15:59;101439.63;;;12.34;55.59
28344;BME280;15597;50.914;6.638;2024-03-06T10:18:29;101448.34;;;12.36;55.63
28344;BME280;15597;50.914;6.638;2024-03-06T10:20:55;101445.66;;;12.41;55.75
28344;BME280;15597;50.914;6.638;2024-03-06T10:23:21;101445.56;;;12.47;55.68
28344;BME280;15597;50.914;6.638;2024-03-06T10:25:48;101443.72;;;12.51;55.65
28344;BME280;15597;50.914;6.638;2024-03-06T10:28:22;101440.22;;;12.53;55.57
28344;BME280;15597;50.914;6.638;2024-03-06T10:30:49;101441.88;;;12.57;55.95
28344;BME280;15597;50.914;6.638;2024-03-06T10:33:16;101450.56;;;12.63;55.53
28344;BME280;15597;50.914;6.638;2024-03-06T10:35:45;101447.84;;;12.67;55.76
28344;BME280;15597;50.914;6.638;2024-03-06T10:38:11;101453.03;;;12.74;55.72
28344;BME280;15597;50.914;6.638;2024-03-06T10:40:39;101456.44;;;12.79;55.63
28344;BME280;15597;50.914;6.638;2024-03-06T10:43:05;101459.84;;;12.84;55.75
28344;BME280;15597;50.914;6.638;2024-03-06T10:48:04;101456.16;;;12.94;55.95
28344;BME280;15597;50.914;6.638;2024-03-06T10:50:30;101453.44;;;13.00;56.14
28344;BME280;15597;50.914;6.638;2024-03-06T10:52:57;101460.38;;;13.05;56.03
28344;BME280;15597;50.914;6.638;2024-03-06T10:55:24;101459.41;;;13.09;55.50
28344;BME280;15597;50.914;6.638;2024-03-06T10:57:52;101456.69;;;13.13;55.63
28344;BME280;15597;50.914;6.638;2024-03-06T11:00:20;101457.50;;;13.17;55.64
28344;BME280;15597;50.914;6.638;2024-03-06T11:02:46;101451.31;;;13.20;55.60
28344;BME280;15597;50.914;6.638;2024-03-06T11:05:14;101458.25;;;13.24;55.36
28344;BME280;15597;50.914;6.638;2024-03-06T11:07:40;101459.06;;;13.27;55.03
28344;BME280;15597;50.914;6.638;2024-03-06T11:10:06;101451.13;;;13.32;55.54
28344;BME280;15597;50.914;6.638;2024-03-06T11:12:35;101460.63;;;13.38;55.14
28344;BME280;15597;50.914;6.638;2024-03-06T11:15:09;101461.44;;;13.41;55.14
28344;BME280;15597;50.914;6.638;2024-03-06T11:17:36;101463.09;;;13.49;54.81
28344;BME280;15597;50.914;6.638;2024-03-06T11:28:34;101459.34;;;13.61;54.26
28344;BME280;15597;50.914;6.638;2024-03-06T11:31:07;101460.16;;;13.63;54.54
28344;BME280;15597;50.914;6.638;2024-03-06T11:33:47;101470.63;;;13.66;54.49
28344;BME280;15597;50.914;6.638;2024-03-06T11:38:59;101464.34;;;13.73;53.83
28344;BME280;15597;50.914;6.638;2024-03-06T11:44:12;101465.91;;;13.83;53.77
28344;BME280;15597;50.914;6.638;2024-03-06T11:46:50;101465.88;;;13.85;54.08
28344;BME280;15597;50.914;6.638;2024-03-06T11:49:22;101471.03;;;13.90;53.97
28344;BME280;15597;50.914;6.638;2024-03-06T11:51:55;101466.63;;;13.92;53.79
28344;BME280;15597;50.914;6.638;2024-03-06T11:54:23;101468.28;;;13.96;53.53
28344;BME280;15597;50.914;6.638;2024-03-06T11:56:51;101466.47;;;13.98;53.75
28344;BME280;15597;50.914;6.638;2024-03-06T11:59:17;101473.41;;;14.02;53.52
28344;BME280;15597;50.914;6.638;2024-03-06T12:01:43;101462.81;;;14.05;53.41
28344;BME280;15597;50.914;6.638;2024-03-06T12:04:08;101464.47;;;14.09;53.50
28344;BME280;15597;50.914;6.638;2024-03-06T12:06:35;101468.72;;;14.15;53.44
28344;BME280;15597;50.914;6.638;2024-03-06T12:09:02;101467.75;;;14.19;52.86
28344;BME280;15597;50.914;6.638;2024-03-06T12:11:27;101462.41;;;14.24;53.09
28344;BME280;15597;50.914;6.638;2024-03-06T12:13:54;101463.22;;;14.26;52.93
28344;BME280;15597;50.914;6.638;2024-03-06T12:16:21;101471.00;;;14.30;52.44
28344;BME280;15597;50.914;6.638;2024-03-06T12:18:54;101468.41;;;14.29;52.67
28344;BME280;15597;50.914;6.638;2024-03-06T12:21:19;101467.44;;;14.33;52.67
28344;BME280;15597;50.914;6.638;2024-03-06T12:23:45;101462.09;;;14.36;52.57
28344;BME280;15597;50.914;6.638;2024-03-06T12:26:10;101470.84;;;14.38;52.65
28344;BME280;15597;50.914;6.638;2024-03-06T12:28:37;101469.09;;;14.37;52.94
28344;BME280;15597;50.914;6.638;2024-03-06T12:31:04;101470.00;;;14.38;52.92
28344;BME280;15597;50.914;6.638;2024-03-06T12:33:30;101466.44;;;14.39;53.12
28344;BME280;15597;50.914;6.638;2024-03-06T12:36:03;101472.63;;;14.36;53.26
28344;BME280;15597;50.914;6.638;2024-03-06T12:38:30;101467.28;;;14.41;53.46
28344;BME280;15597;50.914;6.638;2024-03-06T12:40:55;101465.34;;;14.48;54.12
28344;BME280;15597;50.914;6.638;2024-03-06T12:43:21;101471.34;;;14.54;54.44
28344;BME280;15597;50.914;6.638;2024-03-06T12:45:47;101462.47;;;14.58;54.97
28344;BME280;15597;50.914;6.638;2024-03-06T12:48:12;101463.25;;;14.62;55.27
28344;BME280;15597;50.914;6.638;2024-03-06T12:50:38;101460.47;;;14.68;55.95
28344;BME280;15597;50.914;6.638;2024-03-06T12:53:04;101462.00;;;14.79;56.54
28344;BME280;15597;50.914;6.638;2024-03-06T12:55:32;101462.91;;;14.78;58.02
28344;BME280;15597;50.914;6.638;2024-03-06T12:57:57;101465.09;;;14.96;57.48
28344;BME280;15597;50.914;6.638;2024-03-06T13:00:23;101460.16;;;15.17;57.23
28344;BME280;15597;50.914;6.638;2024-03-06T13:02:49;101466.75;;;15.33;56.97
28344;BME280;15597;50.914;6.638;2024-03-06T13:05:16;101455.75;;;15.49;57.47